sensor_id;sensor_type;location;lat;lon;timestamp;P1;durP1;ratioP1;P2;durP2;ratioP2
8361;SDS011;4218;48.326;14.304;2023-02-28T00:26:52;11.80;;;11.00;;
8361;SDS011;4218;48.326;14.304;2023-02-28T00:29:17;11.40;;;10.70;;
8361;SDS011;4218;48.326;14.304;2023-02-28T00:31:43;11.57;;;10.93;;
8361;SDS011;4218;48.326;14.304;2023-02-28T00:34:11;11.60;;;10.90;;
8361;SDS011;4218;48.326;14.304;2023-02-28T00:36:37;11.33;;;10.63;;
8361;SDS011;4218;48.326;14.304;2023-02-28T00:39:03;10.97;;;10.07;;
8361;SDS011;4218;48.326;14.304;2023-02-28T00:41:30;10.73;;;9.93;;
8361;SDS011;4218;48.326;14.304;2023-02-28T00:43:55;10.50;;;9.90;;
8361;SDS011;4218;48.326;14.304;2023-02-28T00:46:26;12.17;;;11.07;;
8361;SDS011;4218;48.326;14.304;2023-02-28T00:49:03;12.13;;;11.40;;
8361;SDS011;4218;48.326;14.304;2023-02-28T00:51:31;11.70;;;10.80;;
8361;SDS011;4218;48.326;14.304;2023-02-28T01:02:14;10.83;;;9.90;;
8361;SDS011;4218;48.326;14.304;2023-02-28T01:04:50;10.83;;;10.13;;
8361;SDS011;4218;48.326;14.304;2023-02-28T01:30:05;10.40;;;9.60;;
8361;SDS011;4218;48.326;14.304;2023-02-28T01:32:42;10.30;;;9.60;;
8361;SDS011;4218;48.326;14.304;2023-02-28T01:35:13;10.87;;;10.07;;
8361;SDS011;4218;48.326;14.304;2023-02-28T01:37:41;11.10;;;10.43;;
8361;SDS011;4218;48.326;14.304;2023-02-28T01:40:08;11.30;;;10.63;;
8361;SDS011;4218;48.326;14.304;2023-02-28T01:42:39;11.63;;;10.70;;
8361;SDS011;4218;48.326;14.304;2023-02-28T01:47:50;11.20;;;10.40;;
8361;SDS011;4218;48.326;14.304;2023-02-28T01:50:27;12.27;;;10.27;;
8361;SDS011;4218;48.326;14.304;2023-02-28T01:52:57;10.70;;;10.00;;
8361;SDS011;4218;48.326;14.304;2023-02-28T01:55:29;11.80;;;11.00;;
8361;SDS011;4218;48.326;14.304;2023-02-28T01:57:56;10.30;;;9.60;;
8361;SDS011;4218;48.326;14.304;2023-02-28T02:00:27;10.30;;;9.63;;
8361;SDS011;4218;48.326;14.304;2023-02-28T02:03:05;12.00;;;11.17;;
8361;SDS011;4218;48.326;14.304;2023-02-28T02:05:34;11.00;;;10.30;;
8361;SDS011;4218;48.326;14.304;2023-02-28T02:08:10;11.73;;;10.83;;
8361;SDS011;4218;48.326;14.304;2023-02-28T02:18:53;10.33;;;9.53;;
8361;SDS011;4218;48.326;14.304;2023-02-28T02:33:17;13.33;;;12.33;;
8361;SDS011;4218;48.326;14.304;2023-02-28T02:38:58;10.43;;;9.73;;
8361;SDS011;4218;48.326;14.304;2023-02-28T02:41:51;10.47;;;9.77;;
8361;SDS011;4218;48.326;14.304;2023-02-28T02:44:23;14.77;;;13.80;;
8361;SDS011;4218;48.326;14.304;2023-02-28T02:46:54;11.67;;;10.83;;
8361;SDS011;4218;48.326;14.304;2023-02-28T02:49:30;12.67;;;11.70;;
8361;SDS011;4218;48.326;14.304;2023-02-28T02:51:58;12.87;;;12.00;;
8361;SDS011;4218;48.326;14.304;2023-02-28T02:54:36;11.33;;;10.40;;
8361;SDS011;4218;48.326;14.304;2023-02-28T02:57:10;11.00;;;10.30;;
8361;SDS011;4218;48.326;14.304;2023-02-28T02:59:44;12.37;;;11.50;;
8361;SDS011;4218;48.326;14.304;2023-02-28T03:02:14;11.27;;;10.57;;
8361;SDS011;4218;48.326;14.304;2023-02-28T03:04:48;10.60;;;10.00;;
8361;SDS011;4218;48.326;14.304;2023-02-28T03:07:19;10.20;;;9.50;;
8361;SDS011;4218;48.326;14.304;2023-02-28T03:09:51;9.70;;;9.10;;
8361;SDS011;4218;48.326;14.304;2023-02-28T03:12:17;10.77;;;9.93;;
8361;SDS011;4218;48.326;14.304;2023-02-28T03:14:55;11.47;;;10.57;;
8361;SDS011;4218;48.326;14.304;2023-02-28T03:23:17;10.90;;;9.90;;
8361;SDS011;4218;48.326;14.304;2023-02-28T03:25:56;11.10;;;10.20;;
8361;SDS011;4218;48.326;14.304;2023-02-28T03:34:36;9.27;;;8.67;;
8361;SDS011;4218;48.326;14.304;2023-02-28T03:37:10;10.03;;;9.23;;
8361;SDS011;4218;48.326;14.304;2023-02-28T03:39:51;14.30;;;13.30;;
8361;SDS011;4218;48.326;14.304;2023-02-28T03:42:33;13.00;;;11.93;;
8361;SDS011;4218;48.326;14.304;2023-02-28T03:45:05;11.10;;;10.20;;
8361;SDS011;4218;48.326;14.304;2023-02-28T03:47:51;11.77;;;10.87;;
8361;SDS011;4218;48.326;14.304;2023-02-28T03:50:21;11.43;;;10.73;;
8361;SDS011;4218;48.326;14.304;2023-02-28T03:52:57;9.87;;;9.07;;
8361;SDS011;4218;48.326;14.304;2023-02-28T03:55:30;10.70;;;9.97;;
8361;SDS011;4218;48.326;14.304;2023-02-28T03:58:14;11.23;;;10.37;;
8361;SDS011;4218;48.326;14.304;2023-02-28T04:00:52;11.67;;;10.87;;
8361;SDS011;4218;48.326;14.304;2023-02-28T04:03:24;12.60;;;11.70;;
8361;SDS011;4218;48.326;14.304;2023-02-28T04:05:51;11.97;;;11.17;;
8361;SDS011;4218;48.326;14.304;2023-02-28T04:08:19;11.27;;;10.47;;
8361;SDS011;4218;48.326;14.304;2023-02-28T04:10:56;10.27;;;9.53;;
8361;SDS011;4218;48.326;14.304;2023-02-28T04:13:32;10.73;;;10.03;;
8361;SDS011;4218;48.326;14.304;2023-02-28T04:16:09;11.03;;;10.30;;
8361;SDS011;4218;48.326;14.304;2023-02-28T04:18:38;12.33;;;11.40;;
8361;SDS011;4218;48.326;14.304;2023-02-28T04:21:09;14.17;;;13.13;;
8361;SDS011;4218;48.326;14.304;2023-02-28T04:23:36;10.40;;;9.73;;
8361;SDS011;4218;48.326;14.304;2023-02-28T04:26:02;11.97;;;11.17;;
8361;SDS011;4218;48.326;14.304;2023-02-28T04:28:29;11.23;;;10.43;;
8361;SDS011;4218;48.326;14.304;2023-02-28T04:30:58;12.83;;;11.83;;
8361;SDS011;4218;48.326;14.304;2023-02-28T04:33:28;13.47;;;12.33;;
8361;SDS011;4218;48.326;14.304;2023-02-28T04:36:05;11.47;;;10.77;;
8361;SDS011;4218;48.326;14.304;2023-02-28T04:38:36;12.27;;;11.47;;
8361;SDS011;4218;48.326;14.304;2023-02-28T04:41:03;11.10;;;10.33;;
8361;SDS011;4218;48.326;14.304;2023-02-28T04:43:35;12.70;;;11.90;;
8361;SDS011;4218;48.326;14.304;2023-02-28T04:46:08;12.90;;;12.00;;
8361;SDS011;4218;48.326;14.304;2023-02-28T04:48:36;13.33;;;12.43;;
8361;SDS011;4218;48.326;14.304;2023-02-28T04:51:07;12.47;;;11.70;;
8361;SDS011;4218;48.326;14.304;2023-02-28T04:53:37;12.60;;;11.63;;
8361;SDS011;4218;48.326;14.304;2023-02-28T04:56:10;11.23;;;10.43;;
8361;SDS011;4218;48.326;14.304;2023-02-28T04:58:39;13.93;;;13.03;;
8361;SDS011;4218;48.326;14.304;2023-02-28T05:01:16;13.97;;;13.03;;
8361;SDS011;4218;48.326;14.304;2023-02-28T05:03:45;13.27;;;12.20;;
8361;SDS011;4218;48.326;14.304;2023-02-28T05:06:11;18.93;;;17.83;;
8361;SDS011;4218;48.326;14.304;2023-02-28T05:08:39;13.53;;;12.37;;
8361;SDS011;4218;48.326;14.304;2023-02-28T05:11:24;13.07;;;12.17;;
8361;SDS011;4218;48.326;14.304;2023-02-28T05:13:53;12.23;;;11.53;;
8361;SDS011;4218;48.326;14.304;2023-02-28T05:16:22;13.07;;;12.37;;
8361;SDS011;4218;48.326;14.304;2023-02-28T05:18:54;13.20;;;12.17;;
8361;SDS011;4218;48.326;14.304;2023-02-28T05:21:34;13.93;;;12.97;;
8361;SDS011;4218;48.326;14.304;2023-02-28T05:24:01;11.80;;;10.87;;
8361;SDS011;4218;48.326;14.304;2023-02-28T05:26:34;10.93;;;10.13;;
8361;SDS011;4218;48.326;14.304;2023-02-28T05:29:01;12.40;;;11.40;;
8361;SDS011;4218;48.326;14.304;2023-02-28T05:31:27;18.17;;;16.83;;
8361;SDS011;4218;48.326;14.304;2023-02-28T05:33:52;13.03;;;12.13;;
8361;SDS011;4218;48.326;14.304;2023-02-28T05:36:22;16.23;;;15.13;;
8361;SDS011;4218;48.326;14.304;2023-02-28T05:38:49;12.13;;;11.47;;
8361;SDS011;4218;48.326;14.304;2023-02-28T05:41:20;14.60;;;13.50;;
8361;SDS011;4218;48.326;14.304;2023-02-28T05:43:46;12.37;;;11.67;;
8361;SDS011;4218;48.326;14.304;2023-02-28T05:46:12;17.80;;;16.77;;
8361;SDS011;4218;48.326;14.304;2023-02-28T05:48:39;16.13;;;15.23;;
8361;SDS011;4218;48.326;14.304;2023-02-28T05:51:06;20.83;;;19.07;;
8361;SDS011;4218;48.326;14.304;2023-02-28T05:53:33;12.37;;;11.53;;
8361;SDS011;4218;48.326;14.304;2023-02-28T05:56:00;17.57;;;16.57;;
8361;SDS011;4218;48.326;14.304;2023-02-28T05:58:26;18.70;;;17.53;;
8361;SDS011;4218;48.326;14.304;2023-02-28T06:00:57;13.57;;;12.40;;
8361;SDS011;4218;48.326;14.304;2023-02-28T06:03:24;16.33;;;15.37;;
8361;SDS011;4218;48.326;14.304;2023-02-28T06:05:49;17.73;;;16.73;;
8361;SDS011;4218;48.326;14.304;2023-02-28T06:08:15;23.80;;;22.57;;
8361;SDS011;4218;48.326;14.304;2023-02-28T06:10:41;18.10;;;17.10;;
8361;SDS011;4218;48.326;14.304;2023-02-28T06:13:06;19.90;;;18.53;;
8361;SDS011;4218;48.326;14.304;2023-02-28T06:15:33;13.40;;;12.50;;
8361;SDS011;4218;48.326;14.304;2023-02-28T06:18:03;20.37;;;19.17;;
8361;SDS011;4218;48.326;14.304;2023-02-28T06:20:30;13.57;;;12.77;;
8361;SDS011;4218;48.326;14.304;2023-02-28T06:22:56;20.57;;;19.50;;
8361;SDS011;4218;48.326;14.304;2023-02-28T06:25:26;17.00;;;15.87;;
8361;SDS011;4218;48.326;14.304;2023-02-28T06:27:52;13.87;;;12.70;;
8361;SDS011;4218;48.326;14.304;2023-02-28T06:30:18;10.53;;;9.73;;
8361;SDS011;4218;48.326;14.304;2023-02-28T06:32:51;12.33;;;11.53;;
8361;SDS011;4218;48.326;14.304;2023-02-28T06:35:18;11.50;;;10.80;;
8361;SDS011;4218;48.326;14.304;2023-02-28T06:37:44;12.70;;;11.90;;
8361;SDS011;4218;48.326;14.304;2023-02-28T06:40:10;13.93;;;13.13;;
8361;SDS011;4218;48.326;14.304;2023-02-28T06:42:41;14.43;;;13.33;;
8361;SDS011;4218;48.326;14.304;2023-02-28T06:45:07;13.97;;;12.90;;
8361;SDS011;4218;48.326;14.304;2023-02-28T06:47:34;11.23;;;10.40;;
8361;SDS011;4218;48.326;14.304;2023-02-28T06:50:03;12.63;;;11.80;;
8361;SDS011;4218;48.326;14.304;2023-02-28T06:52:35;11.70;;;10.90;;
8361;SDS011;4218;48.326;14.304;2023-02-28T06:55:04;11.10;;;10.23;;
8361;SDS011;4218;48.326;14.304;2023-02-28T06:57:40;10.33;;;9.73;;
8361;SDS011;4218;48.326;14.304;2023-02-28T07:00:07;11.97;;;11.27;;
8361;SDS011;4218;48.326;14.304;2023-02-28T07:02:38;11.00;;;10.20;;
8361;SDS011;4218;48.326;14.304;2023-02-28T07:07:39;13.43;;;12.60;;
8361;SDS011;4218;48.326;14.304;2023-02-28T07:10:09;20.00;;;18.90;;
8361;SDS011;4218;48.326;14.304;2023-02-28T07:12:42;14.73;;;13.83;;
8361;SDS011;4218;48.326;14.304;2023-02-28T07:15:08;15.10;;;14.00;;
8361;SDS011;4218;48.326;14.304;2023-02-28T07:17:36;13.50;;;12.70;;
8361;SDS011;4218;48.326;14.304;2023-02-28T07:20:05;14.93;;;14.03;;
8361;SDS011;4218;48.326;14.304;2023-02-28T07:22:36;11.53;;;10.63;;
8361;SDS011;4218;48.326;14.304;2023-02-28T07:25:03;11.77;;;10.93;;
8361;SDS011;4218;48.326;14.304;2023-02-28T07:27:30;16.40;;;15.20;;
8361;SDS011;4218;48.326;14.304;2023-02-28T07:29:55;19.43;;;18.37;;
8361;SDS011;4218;48.326;14.304;2023-02-28T07:32:27;16.10;;;15.17;;
8361;SDS011;4218;48.326;14.304;2023-02-28T07:34:54;15.77;;;14.77;;
8361;SDS011;4218;48.326;14.304;2023-02-28T07:37:20;13.50;;;12.60;;
8361;SDS011;4218;48.326;14.304;2023-02-28T07:39:47;12.83;;;12.03;;
8361;SDS011;4218;48.326;14.304;2023-02-28T07:42:12;15.77;;;11.27;;
8361;SDS011;4218;48.326;14.304;2023-02-28T07:44:41;11.80;;;11.07;;
8361;SDS011;4218;48.326;14.304;2023-02-28T07:47:10;13.53;;;12.60;;
8361;SDS011;4218;48.326;14.304;2023-02-28T07:49:36;16.07;;;14.70;;
8361;SDS011;4218;48.326;14.304;2023-02-28T07:52:03;14.20;;;13.30;;
8361;SDS011;4218;48.326;14.304;2023-02-28T07:54:31;14.27;;;13.37;;
8361;SDS011;4218;48.326;14.304;2023-02-28T07:57:07;13.83;;;12.80;;
8361;SDS011;4218;48.326;14.304;2023-02-28T09:12:27;12.30;;;11.40;;
8361;SDS011;4218;48.326;14.304;2023-02-28T09:14:58;13.40;;;12.23;;
8361;SDS011;4218;48.326;14.304;2023-02-28T09:17:23;11.77;;;11.07;;
8361;SDS011;4218;48.326;14.304;2023-02-28T09:19:49;13.17;;;12.37;;
8361;SDS011;4218;48.326;14.304;2023-02-28T09:22:14;12.77;;;11.90;;
8361;SDS011;4218;48.326;14.304;2023-02-28T09:24:42;13.53;;;12.63;;
8361;SDS011;4218;48.326;14.304;2023-02-28T09:27:09;12.47;;;11.67;;
8361;SDS011;4218;48.326;14.304;2023-02-28T09:29:35;15.83;;;14.53;;
8361;SDS011;4218;48.326;14.304;2023-02-28T09:32:02;15.93;;;15.00;;
8361;SDS011;4218;48.326;14.304;2023-02-28T09:34:31;13.77;;;12.87;;
8361;SDS011;4218;48.326;14.304;2023-02-28T09:37:02;13.63;;;12.80;;
8361;SDS011;4218;48.326;14.304;2023-02-28T09:39:38;14.63;;;13.83;;
8361;SDS011;4218;48.326;14.304;2023-02-28T09:42:04;15.97;;;14.97;;
8361;SDS011;4218;48.326;14.304;2023-02-28T09:44:48;20.80;;;19.53;;
8361;SDS011;4218;48.326;14.304;2023-02-28T09:56:39;18.27;;;17.00;;
8361;SDS011;4218;48.326;14.304;2023-02-28T10:01:53;18.40;;;17.00;;
8361;SDS011;4218;48.326;14.304;2023-02-28T10:04:47;14.63;;;13.67;;
8361;SDS011;4218;48.326;14.304;2023-02-28T10:15:58;23.95;;;22.40;;
8361;SDS011;4218;48.326;14.304;2023-02-28T10:18:30;19.27;;;18.07;;
8361;SDS011;4218;48.326;14.304;2023-02-28T10:21:10;19.43;;;18.20;;
8361;SDS011;4218;48.326;14.304;2023-02-28T10:23:43;16.23;;;14.80;;
8361;SDS011;4218;48.326;14.304;2023-02-28T10:26:14;14.90;;;13.80;;
8361;SDS011;4218;48.326;14.304;2023-02-28T10:28:46;14.50;;;13.30;;
8361;SDS011;4218;48.326;14.304;2023-02-28T10:33:49;11.87;;;11.27;;
8361;SDS011;4218;48.326;14.304;2023-02-28T10:36:25;13.57;;;12.63;;
8361;SDS011;4218;48.326;14.304;2023-02-28T10:38:53;16.77;;;15.70;;
8361;SDS011;4218;48.326;14.304;2023-02-28T10:41:37;12.93;;;11.70;;
8361;SDS011;4218;48.326;14.304;2023-02-28T10:44:21;16.73;;;15.27;;
8361;SDS011;4218;48.326;14.304;2023-02-28T10:46:48;15.10;;;14.20;;
8361;SDS011;4218;48.326;14.304;2023-02-28T10:49:17;13.90;;;12.80;;
8361;SDS011;4218;48.326;14.304;2023-02-28T10:51:47;15.73;;;14.63;;
8361;SDS011;4218;48.326;14.304;2023-02-28T10:54:19;15.17;;;14.17;;
8361;SDS011;4218;48.326;14.304;2023-02-28T10:57:06;15.73;;;14.77;;
8361;SDS011;4218;48.326;14.304;2023-02-28T10:59:40;14.27;;;13.27;;
8361;SDS011;4218;48.326;14.304;2023-02-28T11:02:29;15.60;;;14.63;;
8361;SDS011;4218;48.326;14.304;2023-02-28T11:04:59;14.10;;;12.87;;
8361;SDS011;4218;48.326;14.304;2023-02-28T11:07:26;15.10;;;14.00;;
8361;SDS011;4218;48.326;14.304;2023-02-28T11:09:54;14.63;;;13.77;;
8361;SDS011;4218;48.326;14.304;2023-02-28T11:12:33;14.67;;;13.70;;
8361;SDS011;4218;48.326;14.304;2023-02-28T11:15:18;17.27;;;16.17;;
8361;SDS011;4218;48.326;14.304;2023-02-28T11:17:58;17.33;;;16.33;;
8361;SDS011;4218;48.326;14.304;2023-02-28T11:20:28;16.37;;;15.27;;
8361;SDS011;4218;48.326;14.304;2023-02-28T11:22:55;14.30;;;13.40;;
8361;SDS011;4218;48.326;14.304;2023-02-28T11:25:23;16.73;;;15.37;;
8361;SDS011;4218;48.326;14.304;2023-02-28T11:27:56;14.10;;;13.20;;
8361;SDS011;4218;48.326;14.304;2023-02-28T11:30:36;15.87;;;14.90;;
8361;SDS011;4218;48.326;14.304;2023-02-28T11:36:03;14.47;;;13.57;;
8361;SDS011;4218;48.326;14.304;2023-02-28T11:38:36;12.80;;;12.00;;
8361;SDS011;4218;48.326;14.304;2023-02-28T11:41:09;14.07;;;13.00;;
8361;SDS011;4218;48.326;14.304;2023-02-28T11:47:12;17.13;;;16.13;;
8361;SDS011;4218;48.326;14.304;2023-02-28T11:55:59;14.40;;;13.50;;
8361;SDS011;4218;48.326;14.304;2023-02-28T12:04:11;13.07;;;12.13;;
8361;SDS011;4218;48.326;14.304;2023-02-28T12:06:57;12.23;;;11.43;;
8361;SDS011;4218;48.326;14.304;2023-02-28T12:24:23;13.67;;;12.87;;
8361;SDS011;4218;48.326;14.304;2023-02-28T12:27:31;13.47;;;12.57;;
8361;SDS011;4218;48.326;14.304;2023-02-28T12:31:06;14.17;;;13.27;;
8361;SDS011;4218;48.326;14.304;2023-02-28T12:34:06;13.87;;;12.80;;
8361;SDS011;4218;48.326;14.304;2023-02-28T12:36:40;15.13;;;14.13;;
8361;SDS011;4218;48.326;14.304;2023-02-28T12:46:47;13.50;;;12.70;;
8361;SDS011;4218;48.326;14.304;2023-02-28T12:50:11;24.30;;;22.87;;
8361;SDS011;4218;48.326;14.304;2023-02-28T12:52:53;16.43;;;15.33;;
8361;SDS011;4218;48.326;14.304;2023-02-28T12:55:31;15.07;;;13.97;;
8361;SDS011;4218;48.326;14.304;2023-02-28T13:00:52;14.53;;;13.50;;
8361;SDS011;4218;48.326;14.304;2023-02-28T13:03:57;14.20;;;13.10;;
8361;SDS011;4218;48.326;14.304;2023-02-28T13:09:13;16.60;;;15.53;;
8361;SDS011;4218;48.326;14.304;2023-02-28T13:11:52;14.83;;;13.73;;
8361;SDS011;4218;48.326;14.304;2023-02-28T13:14:35;15.70;;;14.53;;
8361;SDS011;4218;48.326;14.304;2023-02-28T13:19:39;14.77;;;13.70;;
8361;SDS011;4218;48.326;14.304;2023-02-28T13:24:54;14.53;;;13.43;;
8361;SDS011;4218;48.326;14.304;2023-02-28T13:27:25;11.93;;;11.03;;
8361;SDS011;4218;48.326;14.304;2023-02-28T13:29:58;12.33;;;11.53;;
8361;SDS011;4218;48.326;14.304;2023-02-28T13:37:36;13.63;;;12.83;;
8361;SDS011;4218;48.326;14.304;2023-02-28T13:42:48;14.97;;;13.77;;
8361;SDS011;4218;48.326;14.304;2023-02-28T13:45:25;15.33;;;14.07;;
8361;SDS011;4218;48.326;14.304;2023-02-28T13:47:53;13.47;;;12.50;;
8361;SDS011;4218;48.326;14.304;2023-02-28T13:55:34;12.60;;;11.80;;
8361;SDS011;4218;48.326;14.304;2023-02-28T14:07:15;13.73;;;12.83;;
8361;SDS011;4218;48.326;14.304;2023-02-28T14:09:46;12.15;;;11.48;;
8361;SDS011;4218;48.326;14.304;2023-02-28T14:15:27;14.20;;;13.20;;
8361;SDS011;4218;48.326;14.304;2023-02-28T14:20:49;13.03;;;12.13;;
8361;SDS011;4218;48.326;14.304;2023-02-28T14:31:15;19.27;;;18.07;;
8361;SDS011;4218;48.326;14.304;2023-02-28T14:34:02;16.47;;;15.50;;
8361;SDS011;4218;48.326;14.304;2023-02-28T14:36:42;14.40;;;13.30;;
8361;SDS011;4218;48.326;14.304;2023-02-28T14:39:22;21.03;;;19.73;;
8361;SDS011;4218;48.326;14.304;2023-02-28T14:41:53;14.67;;;13.57;;
8361;SDS011;4218;48.326;14.304;2023-02-28T14:44:31;14.60;;;13.53;;
8361;SDS011;4218;48.326;14.304;2023-02-28T14:47:00;15.40;;;14.30;;
8361;SDS011;4218;48.326;14.304;2023-02-28T14:49:37;17.20;;;16.10;;
8361;SDS011;4218;48.326;14.304;2023-02-28T14:52:17;14.50;;;13.40;;
8361;SDS011;4218;48.326;14.304;2023-02-28T14:55:05;17.60;;;16.53;;
8361;SDS011;4218;48.326;14.304;2023-02-28T14:57:41;18.67;;;17.33;;
8361;SDS011;4218;48.326;14.304;2023-02-28T15:00:26;15.23;;;14.03;;
8361;SDS011;4218;48.326;14.304;2023-02-28T15:03:22;27.17;;;25.47;;
8361;SDS011;4218;48.326;14.304;2023-02-28T15:05:59;18.73;;;17.53;;
8361;SDS011;4218;48.326;14.304;2023-02-28T15:08:30;19.50;;;18.30;;
8361;SDS011;4218;48.326;14.304;2023-02-28T15:11:07;15.23;;;14.20;;
8361;SDS011;4218;48.326;14.304;2023-02-28T15:13:52;15.33;;;14.27;;
8361;SDS011;4218;48.326;14.304;2023-02-28T15:16:26;16.83;;;15.60;;
8361;SDS011;4218;48.326;14.304;2023-02-28T15:18:57;17.33;;;16.20;;
8361;SDS011;4218;48.326;14.304;2023-02-28T15:21:35;18.03;;;16.87;;
8361;SDS011;4218;48.326;14.304;2023-02-28T15:26:51;15.70;;;14.60;;
8361;SDS011;4218;48.326;14.304;2023-02-28T15:29:30;16.60;;;15.07;;
8361;SDS011;4218;48.326;14.304;2023-02-28T15:32:03;17.23;;;15.77;;
8361;SDS011;4218;48.326;14.304;2023-02-28T15:34:40;18.40;;;17.00;;
8361;SDS011;4218;48.326;14.304;2023-02-28T15:39:55;16.37;;;15.13;;
8361;SDS011;4218;48.326;14.304;2023-02-28T15:42:23;16.47;;;15.47;;
8361;SDS011;4218;48.326;14.304;2023-02-28T15:44:56;15.13;;;14.13;;
8361;SDS011;4218;48.326;14.304;2023-02-28T15:47:23;21.77;;;20.17;;
8361;SDS011;4218;48.326;14.304;2023-02-28T15:49:51;18.40;;;16.57;;
8361;SDS011;4218;48.326;14.304;2023-02-28T15:52:27;20.43;;;19.03;;
8361;SDS011;4218;48.326;14.304;2023-02-28T15:54:58;17.73;;;16.37;;
8361;SDS011;4218;48.326;14.304;2023-02-28T15:57:27;19.90;;;18.53;;
8361;SDS011;4218;48.326;14.304;2023-02-28T15:59:58;18.27;;;16.87;;
8361;SDS011;4218;48.326;14.304;2023-02-28T16:02:46;19.20;;;17.80;;
8361;SDS011;4218;48.326;14.304;2023-02-28T16:07:44;17.23;;;16.03;;
8361;SDS011;4218;48.326;14.304;2023-02-28T16:10:12;16.27;;;14.90;;
8361;SDS011;4218;48.326;14.304;2023-02-28T16:12:42;16.60;;;15.40;;
8361;SDS011;4218;48.326;14.304;2023-02-28T16:15:21;15.87;;;14.77;;
8361;SDS011;4218;48.326;14.304;2023-02-28T16:17:48;17.90;;;16.57;;
8361;SDS011;4218;48.326;14.304;2023-02-28T16:20:14;17.30;;;15.93;;
8361;SDS011;4218;48.326;14.304;2023-02-28T16:22:46;15.17;;;14.17;;
8361;SDS011;4218;48.326;14.304;2023-02-28T16:25:13;14.37;;;13.27;;
8361;SDS011;4218;48.326;14.304;2023-02-28T16:27:40;19.90;;;18.30;;
8361;SDS011;4218;48.326;14.304;2023-02-28T16:30:23;17.87;;;16.50;;
8361;SDS011;4218;48.326;14.304;2023-02-28T16:32:51;18.63;;;17.33;;
8361;SDS011;4218;48.326;14.304;2023-02-28T16:35:18;16.23;;;15.07;;
8361;SDS011;4218;48.326;14.304;2023-02-28T16:37:44;18.97;;;17.67;;
8361;SDS011;4218;48.326;14.304;2023-02-28T16:40:20;17.17;;;15.97;;
8361;SDS011;4218;48.326;14.304;2023-02-28T16:42:51;16.80;;;15.50;;
8361;SDS011;4218;48.326;14.304;2023-02-28T16:45:22;14.70;;;13.40;;
8361;SDS011;4218;48.326;14.304;2023-02-28T16:47:54;17.00;;;15.70;;
8361;SDS011;4218;48.326;14.304;2023-02-28T16:50:25;18.03;;;16.73;;
8361;SDS011;4218;48.326;14.304;2023-02-28T16:52:57;16.57;;;15.23;;
8361;SDS011;4218;48.326;14.304;2023-02-28T16:55:26;16.17;;;14.97;;
8361;SDS011;4218;48.326;14.304;2023-02-28T16:57:58;16.13;;;15.03;;
8361;SDS011;4218;48.326;14.304;2023-02-28T17:00:25;20.73;;;19.23;;
8361;SDS011;4218;48.326;14.304;2023-02-28T17:02:54;15.33;;;14.30;;
8361;SDS011;4218;48.326;14.304;2023-02-28T17:05:20;18.70;;;17.20;;
8361;SDS011;4218;48.326;14.304;2023-02-28T17:07:46;14.73;;;13.53;;
8361;SDS011;4218;48.326;14.304;2023-02-28T17:10:22;16.10;;;14.77;;
8361;SDS011;4218;48.326;14.304;2023-02-28T17:12:50;19.03;;;17.53;;
8361;SDS011;4218;48.326;14.304;2023-02-28T17:15:16;18.83;;;17.67;;
8361;SDS011;4218;48.326;14.304;2023-02-28T17:17:43;15.43;;;14.23;;
8361;SDS011;4218;48.326;14.304;2023-02-28T17:20:13;17.27;;;16.07;;
8361;SDS011;4218;48.326;14.304;2023-02-28T17:22:40;14.90;;;13.80;;
8361;SDS011;4218;48.326;14.304;2023-02-28T17:25:16;20.00;;;18.40;;
8361;SDS011;4218;48.326;14.304;2023-02-28T17:27:42;15.50;;;14.17;;
8361;SDS011;4218;48.326;14.304;2023-02-28T17:30:10;15.53;;;14.33;;
8361;SDS011;4218;48.326;14.304;2023-02-28T17:32:40;13.70;;;12.60;;
8361;SDS011;4218;48.326;14.304;2023-02-28T17:35:06;16.07;;;14.47;;
8361;SDS011;4218;48.326;14.304;2023-02-28T17:37:32;15.03;;;13.87;;
8361;SDS011;4218;48.326;14.304;2023-02-28T17:39:57;16.07;;;14.77;;
8361;SDS011;4218;48.326;14.304;2023-02-28T17:42:23;17.27;;;15.97;;
8361;SDS011;4218;48.326;14.304;2023-02-28T17:44:48;17.20;;;15.87;;
8361;SDS011;4218;48.326;14.304;2023-02-28T17:47:14;15.93;;;14.63;;
8361;SDS011;4218;48.326;14.304;2023-02-28T17:49:39;18.40;;;17.13;;
8361;SDS011;4218;48.326;14.304;2023-02-28T17:52:04;15.83;;;14.63;;
8361;SDS011;4218;48.326;14.304;2023-02-28T17:54:30;15.47;;;14.37;;
8361;SDS011;4218;48.326;14.304;2023-02-28T17:56:56;16.50;;;15.30;;
8361;SDS011;4218;48.326;14.304;2023-02-28T17:59:21;14.63;;;13.53;;
8361;SDS011;4218;48.326;14.304;2023-02-28T18:01:46;19.10;;;17.40;;
8361;SDS011;4218;48.326;14.304;2023-02-28T18:04:12;16.30;;;15.10;;
8361;SDS011;4218;48.326;14.304;2023-02-28T18:06:41;15.70;;;14.40;;
8361;SDS011;4218;48.326;14.304;2023-02-28T18:09:16;19.57;;;18.03;;
8361;SDS011;4218;48.326;14.304;2023-02-28T18:11:43;15.67;;;14.47;;
8361;SDS011;4218;48.326;14.304;2023-02-28T18:14:13;16.37;;;15.20;;
8361;SDS011;4218;48.326;14.304;2023-02-28T18:16:39;16.80;;;15.47;;
8361;SDS011;4218;48.326;14.304;2023-02-28T18:19:05;18.17;;;16.80;;
8361;SDS011;4218;48.326;14.304;2023-02-28T18:21:31;18.37;;;17.03;;
8361;SDS011;4218;48.326;14.304;2023-02-28T18:23:56;18.80;;;17.50;;
8361;SDS011;4218;48.326;14.304;2023-02-28T18:26:22;18.30;;;17.10;;
8361;SDS011;4218;48.326;14.304;2023-02-28T18:28:48;20.53;;;19.03;;
8361;SDS011;4218;48.326;14.304;2023-02-28T18:31:15;19.87;;;18.57;;
8361;SDS011;4218;48.326;14.304;2023-02-28T18:33:43;16.93;;;15.73;;
8361;SDS011;4218;48.326;14.304;2023-02-28T18:36:12;18.23;;;16.93;;
8361;SDS011;4218;48.326;14.304;2023-02-28T18:38:37;18.07;;;16.60;;
8361;SDS011;4218;48.326;14.304;2023-02-28T18:41:04;21.70;;;20.17;;
8361;SDS011;4218;48.326;14.304;2023-02-28T18:43:31;14.90;;;13.70;;
8361;SDS011;4218;48.326;14.304;2023-02-28T18:46:02;15.13;;;13.93;;
8361;SDS011;4218;48.326;14.304;2023-02-28T18:48:37;16.23;;;15.03;;
8361;SDS011;4218;48.326;14.304;2023-02-28T18:51:13;16.37;;;15.00;;
8361;SDS011;4218;48.326;14.304;2023-02-28T18:53:43;19.77;;;18.30;;
8361;SDS011;4218;48.326;14.304;2023-02-28T18:56:11;21.10;;;19.60;;
8361;SDS011;4218;48.326;14.304;2023-02-28T18:58:37;17.90;;;16.60;;
8361;SDS011;4218;48.326;14.304;2023-02-28T19:01:03;17.97;;;16.77;;
8361;SDS011;4218;48.326;14.304;2023-02-28T19:03:42;15.47;;;14.40;;
8361;SDS011;4218;48.326;14.304;2023-02-28T19:06:08;20.77;;;19.33;;
8361;SDS011;4218;48.326;14.304;2023-02-28T19:08:34;20.03;;;18.83;;
8361;SDS011;4218;48.326;14.304;2023-02-28T19:11:04;15.57;;;14.57;;
8361;SDS011;4218;48.326;14.304;2023-02-28T19:13:31;18.37;;;16.97;;
8361;SDS011;4218;48.326;14.304;2023-02-28T19:16:00;19.03;;;17.50;;
8361;SDS011;4218;48.326;14.304;2023-02-28T19:18:26;19.27;;;17.87;;
8361;SDS011;4218;48.326;14.304;2023-02-28T19:20:52;20.13;;;18.67;;
8361;SDS011;4218;48.326;14.304;2023-02-28T19:23:18;25.13;;;23.53;;
8361;SDS011;4218;48.326;14.304;2023-02-28T19:25:44;18.93;;;17.53;;
8361;SDS011;4218;48.326;14.304;2023-02-28T19:28:09;19.27;;;17.90;;
8361;SDS011;4218;48.326;14.304;2023-02-28T19:30:35;20.83;;;19.30;;
8361;SDS011;4218;48.326;14.304;2023-02-28T19:33:00;20.13;;;18.83;;
8361;SDS011;4218;48.326;14.304;2023-02-28T19:35:25;19.13;;;17.83;;
8361;SDS011;4218;48.326;14.304;2023-02-28T19:37:51;17.70;;;16.53;;
8361;SDS011;4218;48.326;14.304;2023-02-28T19:40:16;20.30;;;18.70;;
8361;SDS011;4218;48.326;14.304;2023-02-28T19:42:42;20.30;;;18.87;;
8361;SDS011;4218;48.326;14.304;2023-02-28T19:45:07;18.00;;;16.67;;
8361;SDS011;4218;48.326;14.304;2023-02-28T19:47:38;19.03;;;17.63;;
8361;SDS011;4218;48.326;14.304;2023-02-28T19:50:07;19.33;;;17.83;;